createdAt,value
2022-09-01T00:01:30.879Z,14.59
2022-09-01T00:03:48.182Z,14.49
2022-09-01T00:06:05.518Z,14.46
2022-09-01T00:08:22.787Z,14.41
2022-09-01T00:10:40.205Z,14.41
2022-09-01T00:12:57.259Z,14.35
2022-09-01T00:15:14.432Z,14.33
2022-09-01T00:17:31.352Z,14.31
2022-09-01T00:19:49.357Z,14.29
2022-09-01T00:22:06.663Z,14.26
2022-09-01T00:24:23.745Z,14.23
2022-09-01T00:26:40.657Z,14.23
2022-09-01T00:28:57.528Z,14.19
2022-09-01T00:31:15.863Z,14.16
2022-09-01T00:33:32.836Z,14.14
2022-09-01T00:35:49.793Z,14.10
2022-09-01T00:38:06.722Z,14.10
2022-09-01T00:40:24.010Z,14.07
2022-09-01T00:42:41.967Z,14.04
2022-09-01T00:44:59.002Z,13.99
2022-09-01T00:47:17.134Z,13.98
2022-09-01T00:49:35.334Z,13.95
2022-09-01T00:51:52.606Z,13.96
2022-09-01T00:54:09.570Z,13.92
2022-09-01T00:56:26.539Z,13.87
2022-09-01T00:58:43.803Z,13.86
2022-09-01T01:01:00.869Z,13.82
2022-09-01T01:03:17.827Z,13.81
2022-09-01T01:05:34.905Z,13.80
2022-09-01T01:07:51.857Z,13.77
2022-09-01T01:10:09.071Z,13.74
2022-09-01T01:12:26.100Z,13.73
2022-09-01T01:14:45.875Z,13.75
2022-09-01T01:17:03.101Z,13.69
2022-09-01T01:19:20.366Z,13.64
2022-09-01T01:21:37.383Z,13.64
2022-09-01T01:23:54.662Z,13.62
2022-09-01T01:26:11.927Z,13.57
2022-09-01T01:28:28.989Z,13.55
2022-09-01T01:30:47.050Z,13.57
2022-09-01T01:33:03.997Z,13.53
2022-09-01T01:35:21.537Z,13.50
2022-09-01T01:37:38.615Z,13.48
2022-09-01T01:39:55.544Z,13.44
2022-09-01T01:42:12.861Z,13.39
2022-09-01T01:44:29.931Z,13.36
2022-09-01T01:46:46.948Z,13.33
2022-09-01T01:49:04.075Z,13.32
2022-09-01T01:51:21.401Z,13.31
2022-09-01T01:53:38.523Z,13.26
2022-09-01T01:55:55.565Z,13.25
2022-09-01T01:58:12.615Z,13.27
2022-09-01T02:00:30.751Z,13.24
2022-09-01T02:02:48.028Z,13.22
2022-09-01T02:05:05.148Z,13.19
2022-09-01T02:07:22.142Z,13.21
2022-09-01T02:09:39.436Z,13.14
2022-09-01T02:11:57.487Z,13.09
2022-09-01T02:14:14.483Z,13.12
2022-09-01T02:16:31.909Z,13.08
2022-09-01T02:18:50.180Z,13.06
2022-09-01T02:21:08.126Z,13.02
2022-09-01T02:23:25.480Z,13.00
2022-09-01T02:25:59.002Z,12.95
2022-09-01T02:28:20.173Z,12.95
2022-09-01T02:30:37.460Z,12.93
2022-09-01T02:32:54.822Z,12.90
2022-09-01T02:35:11.784Z,12.94
2022-09-01T02:37:28.792Z,12.88
2022-09-01T02:39:45.748Z,12.88
2022-09-01T02:42:02.834Z,12.86
2022-09-01T02:44:20.756Z,12.85
2022-09-01T02:46:38.105Z,12.80
2022-09-01T02:48:55.353Z,12.75
2022-09-01T02:51:12.665Z,12.78
2022-09-01T02:53:29.753Z,12.76
2022-09-01T02:55:46.875Z,12.70
2022-09-01T02:58:04.178Z,12.67
2022-09-01T03:00:22.462Z,12.65
2022-09-01T03:02:39.726Z,12.66
2022-09-01T03:04:57.117Z,12.63
2022-09-01T03:07:14.387Z,12.59
2022-09-01T03:09:32.683Z,12.55
2022-09-01T03:11:49.756Z,12.54
2022-09-01T03:14:07.122Z,12.53
2022-09-01T03:16:24.222Z,12.50
2022-09-01T03:18:41.648Z,12.48
2022-09-01T03:20:58.575Z,12.46
2022-09-01T03:23:15.565Z,12.43
2022-09-01T03:25:36.463Z,12.44
2022-09-01T03:27:53.874Z,12.41
2022-09-01T03:30:10.944Z,12.39
2022-09-01T03:32:28.022Z,12.35
2022-09-01T03:34:44.998Z,12.34
2022-09-01T03:37:02.496Z,12.32
2022-09-01T03:39:19.809Z,12.30
2022-09-01T03:41:36.778Z,12.34
2022-09-01T03:43:54.122Z,12.36
2022-09-01T03:46:11.196Z,12.36
2022-09-01T03:48:28.236Z,12.40
2022-09-01T03:50:45.223Z,12.37
2022-09-01T03:53:02.544Z,12.39
2022-09-01T03:55:20.871Z,12.37
2022-09-01T03:57:37.939Z,12.29
2022-09-01T03:59:55.718Z,12.30
2022-09-01T04:02:13.703Z,12.27
2022-09-01T04:04:31.018Z,12.20
2022-09-01T04:06:48.310Z,12.21
2022-09-01T04:09:05.627Z,12.18
2022-09-01T04:11:22.723Z,12.11
2022-09-01T04:13:39.736Z,12.06
2022-09-01T04:15:56.819Z,12.04
2022-09-01T04:18:14.096Z,12.02
2022-09-01T04:20:31.437Z,12.00
2022-09-01T04:22:48.790Z,11.96
2022-09-01T04:25:05.884Z,11.94
2022-09-01T04:27:23.196Z,11.95
2022-09-01T04:29:40.158Z,11.92
2022-09-01T04:31:57.507Z,11.90
2022-09-01T04:34:14.610Z,11.85
2022-09-01T04:36:32.547Z,11.82
2022-09-01T04:38:49.627Z,11.81
2022-09-01T04:41:06.624Z,11.82
2022-09-01T04:43:23.988Z,11.83
2022-09-01T04:45:43.520Z,11.81
2022-09-01T04:48:00.576Z,11.81
2022-09-01T04:50:18.032Z,11.79
2022-09-01T04:52:35.197Z,11.81
2022-09-01T04:54:52.501Z,11.77
2022-09-01T04:57:09.840Z,11.78
2022-09-01T04:59:26.853Z,11.76
2022-09-01T05:01:44.136Z,11.77
2022-09-01T05:04:01.127Z,11.75
2022-09-01T05:06:18.361Z,11.70
2022-09-01T05:08:36.722Z,11.71
2022-09-01T05:10:54.428Z,11.74
2022-09-01T05:13:11.509Z,11.71
2022-09-01T05:15:28.726Z,11.75
2022-09-01T05:17:46.028Z,11.71
2022-09-01T05:20:05.281Z,11.73
2022-09-01T05:22:24.956Z,11.76
2022-09-01T05:24:42.422Z,11.74
2022-09-01T05:26:59.389Z,11.77
2022-09-01T05:29:16.470Z,11.78
2022-09-01T05:31:33.560Z,11.81
2022-09-01T05:33:51.300Z,11.80
2022-09-01T05:36:08.240Z,11.80
2022-09-01T05:38:25.794Z,11.79
2022-09-01T05:40:42.930Z,11.80
2022-09-01T05:42:59.793Z,11.84
2022-09-01T05:45:16.722Z,11.86
2022-09-01T05:47:33.793Z,11.91
2022-09-01T05:49:51.070Z,11.95
2022-09-01T05:52:08.109Z,12.00
2022-09-01T05:54:25.084Z,12.06
2022-09-01T05:56:44.743Z,12.19
2022-09-01T06:01:39.297Z,12.35
2022-09-01T06:03:57.061Z,12.45
2022-09-01T06:06:14.357Z,12.51
2022-09-01T06:08:31.731Z,12.57
2022-09-01T06:10:48.787Z,12.63
2022-09-01T06:13:05.807Z,12.69
2022-09-01T06:15:25.161Z,12.69
2022-09-01T06:17:42.062Z,12.75
2022-09-01T06:19:59.039Z,12.84
2022-09-01T06:22:16.152Z,12.83
2022-09-01T06:24:33.488Z,12.83
2022-09-01T06:26:50.466Z,12.86
2022-09-01T06:29:07.407Z,12.89
2022-09-01T06:31:25.452Z,12.96
2022-09-01T06:33:42.761Z,13.00
2022-09-01T06:35:59.762Z,13.07
2022-09-01T06:38:16.741Z,13.21
2022-09-01T06:40:33.838Z,13.34
2022-09-01T06:42:50.985Z,13.50
2022-09-01T06:45:07.944Z,13.63
2022-09-01T06:47:25.005Z,13.78
2022-09-01T06:49:42.075Z,13.95
2022-09-01T06:52:00.005Z,14.16
2022-09-01T06:54:19.879Z,14.24
2022-09-01T06:56:45.018Z,14.32
2022-09-01T06:59:09.024Z,14.35
2022-09-01T07:01:26.378Z,14.45
2022-09-01T07:03:45.037Z,14.51
2022-09-01T07:06:02.411Z,14.59
2022-09-01T07:08:20.358Z,14.79
2022-09-01T07:11:19.555Z,14.88
2022-09-01T07:13:14.351Z,14.93
2022-09-01T07:16:31.931Z,15.06
2022-09-01T07:18:08.637Z,15.17
2022-09-01T07:20:27.063Z,15.32
2022-09-01T07:25:21.966Z,15.44
2022-09-01T07:30:16.221Z,15.65
2022-09-01T07:32:48.762Z,15.74
2022-09-01T07:35:05.763Z,15.84
2022-09-01T07:45:28.300Z,16.25
2022-09-01T07:47:53.453Z,16.40
2022-09-01T07:50:25.411Z,16.53
2022-09-01T07:52:47.395Z,16.69
2022-09-01T07:55:04.705Z,16.82
2022-09-01T07:57:21.744Z,17.02
2022-09-01T07:59:38.758Z,17.13
2022-09-01T08:01:56.078Z,17.32
2022-09-01T08:04:13.454Z,17.49
2022-09-01T08:06:37.988Z,17.66
2022-09-01T08:08:56.895Z,17.85
2022-09-01T08:11:14.326Z,18.08
2022-09-01T08:13:34.673Z,18.19
2022-09-01T08:18:48.167Z,18.50
2022-09-01T08:21:06.990Z,18.60
2022-09-01T08:23:24.114Z,18.65
2022-09-01T08:25:41.241Z,18.70
2022-09-01T08:28:00.028Z,18.81
2022-09-01T08:30:17.832Z,18.85
2022-09-01T08:32:35.154Z,18.89
2022-09-01T08:34:52.219Z,18.98
2022-09-01T08:37:09.532Z,19.03
2022-09-01T08:39:27.588Z,19.11
2022-09-01T08:41:47.144Z,19.31
2022-09-01T08:44:04.704Z,19.39
2022-09-01T08:46:22.032Z,19.43
2022-09-01T08:51:20.059Z,19.51
2022-09-01T08:53:38.267Z,19.59
2022-09-01T08:55:55.523Z,19.66
2022-09-01T08:58:12.657Z,19.70
2022-09-01T09:00:30.715Z,19.81
2022-09-01T09:02:47.949Z,19.81
2022-09-01T09:05:17.889Z,19.83
2022-09-01T09:07:34.936Z,19.83
2022-09-01T09:09:54.256Z,19.80
2022-09-01T09:12:12.343Z,19.82
2022-09-01T09:14:29.294Z,19.77
2022-09-01T09:16:46.593Z,19.84
2022-09-01T09:19:08.723Z,19.95
2022-09-01T09:21:25.723Z,20.09
2022-09-01T09:23:43.071Z,20.21
2022-09-01T09:26:00.593Z,20.17
2022-09-01T09:28:17.585Z,20.20
2022-09-01T09:30:35.167Z,20.19
2022-09-01T09:35:30.388Z,20.34
2022-09-01T09:37:48.385Z,20.45
2022-09-01T09:40:05.443Z,20.59
2022-09-01T09:42:22.588Z,20.70
2022-09-01T09:44:41.297Z,20.86
2022-09-01T09:46:58.509Z,20.90
2022-09-01T09:49:15.451Z,20.94
2022-09-01T09:51:32.453Z,21.00
2022-09-01T09:53:49.394Z,20.99
2022-09-01T09:56:06.455Z,21.07
2022-09-01T09:58:24.544Z,21.04
2022-09-01T10:00:41.514Z,21.04
2022-09-01T10:02:58.437Z,21.02
2022-09-01T10:05:15.579Z,21.00
2022-09-01T10:07:32.512Z,21.01
2022-09-01T10:09:49.480Z,20.98
2022-09-01T10:12:06.593Z,20.95
2022-09-01T10:14:35.421Z,20.91
2022-09-01T10:17:03.713Z,20.90
2022-09-01T10:19:21.420Z,21.03
2022-09-01T10:21:38.363Z,21.15
2022-09-01T10:23:55.372Z,21.34
2022-09-01T10:26:12.645Z,21.44
2022-09-01T10:28:30.248Z,21.68
2022-09-01T10:30:47.398Z,21.93
2022-09-01T10:33:12.273Z,22.14
2022-09-01T10:35:32.749Z,22.17
2022-09-01T10:37:49.853Z,22.27
2022-09-01T10:40:06.998Z,22.20
2022-09-01T10:42:23.979Z,22.22
2022-09-01T10:44:41.246Z,22.32
2022-09-01T10:46:59.961Z,22.44
2022-09-01T10:49:19.659Z,22.43
2022-09-01T10:51:50.486Z,22.41
2022-09-01T10:54:09.333Z,22.46
2022-09-01T10:56:35.538Z,22.29
2022-09-01T11:01:47.882Z,22.12
2022-09-01T11:04:06.246Z,22.05
2022-09-01T11:06:23.336Z,22.05
2022-09-01T11:08:41.358Z,21.90
2022-09-01T11:11:04.187Z,21.98
2022-09-01T11:13:24.010Z,21.99
2022-09-01T11:15:41.349Z,22.08
2022-09-01T11:17:58.709Z,22.18
2022-09-01T11:20:15.666Z,22.22
2022-09-01T11:22:32.704Z,22.27
2022-09-01T11:25:00.264Z,22.44
2022-09-01T11:27:28.006Z,22.64
2022-09-01T11:29:48.023Z,22.80
2022-09-01T11:32:08.323Z,22.90
2022-09-01T11:34:25.875Z,22.85
2022-09-01T11:36:43.097Z,22.94
2022-09-01T11:39:00.053Z,23.04
2022-09-01T11:41:17.340Z,22.97
2022-09-01T11:43:34.562Z,23.04
2022-09-01T11:45:52.177Z,22.87
2022-09-01T11:48:09.272Z,22.96
2022-09-01T11:50:27.399Z,23.16
2022-09-01T11:52:44.805Z,23.27
2022-09-01T11:55:02.150Z,23.47
2022-09-01T11:57:19.607Z,23.66
2022-09-01T11:59:36.730Z,23.78
2022-09-01T12:01:55.046Z,24.09
2022-09-01T12:04:12.605Z,24.19
2022-09-01T12:06:29.594Z,24.02
2022-09-01T12:08:47.000Z,23.98
2022-09-01T12:11:04.388Z,24.16
2022-09-01T12:13:21.442Z,24.41
2022-09-01T12:15:54.945Z,24.57
2022-09-01T12:18:17.052Z,24.58
2022-09-01T12:20:34.078Z,24.75
2022-09-01T12:22:51.388Z,25.00
2022-09-01T12:25:08.448Z,25.06
2022-09-01T12:27:25.534Z,25.16
2022-09-01T12:29:42.583Z,25.46
2022-09-01T12:31:59.640Z,25.69
2022-09-01T12:34:16.778Z,25.68
2022-09-01T12:36:33.892Z,25.65
2022-09-01T12:38:50.853Z,25.88
2022-09-01T12:41:08.492Z,26.06
2022-09-01T12:43:25.797Z,26.09
2022-09-01T12:45:42.932Z,26.21
2022-09-01T12:48:00.059Z,26.17
2022-09-01T12:50:17.407Z,26.10
2022-09-01T12:52:34.343Z,25.66
2022-09-01T12:54:51.266Z,25.65
2022-09-01T12:57:09.293Z,25.57
2022-09-01T12:59:36.321Z,25.50
2022-09-01T13:01:54.800Z,25.44
2022-09-01T13:04:11.858Z,25.29
2022-09-01T13:06:28.927Z,25.11
2022-09-01T13:08:46.230Z,25.08
2022-09-01T13:11:03.615Z,24.82
2022-09-01T13:13:21.062Z,24.62
2022-09-01T13:15:38.214Z,24.52
2022-09-01T13:17:55.887Z,24.54
2022-09-01T13:20:12.878Z,24.44
2022-09-01T13:22:31.031Z,24.47
2022-09-01T13:24:48.067Z,24.55
2022-09-01T13:27:21.943Z,24.71
2022-09-01T13:29:39.597Z,24.78
2022-09-01T13:34:33.774Z,24.75
2022-09-01T13:36:52.637Z,24.74
2022-09-01T13:39:09.942Z,24.78
2022-09-01T13:41:27.322Z,24.79
2022-09-01T13:46:01.840Z,24.78
2022-09-01T13:48:19.335Z,24.78
2022-09-01T13:53:13.644Z,24.64
2022-09-01T13:55:30.755Z,24.79
2022-09-01T13:57:49.762Z,24.95
2022-09-01T14:00:09.561Z,24.96
2022-09-01T14:02:26.513Z,25.09
2022-09-01T14:04:43.501Z,25.14
2022-09-01T14:07:00.887Z,25.26
2022-09-01T14:09:17.863Z,25.41
2022-09-01T14:11:34.957Z,25.46
2022-09-01T14:13:52.318Z,25.45
2022-09-01T14:16:09.792Z,25.35
2022-09-01T14:18:27.186Z,25.47
2022-09-01T14:20:44.275Z,25.27
2022-09-01T14:23:01.700Z,25.09
2022-09-01T14:25:18.832Z,24.88
2022-09-01T14:27:36.115Z,24.79
2022-09-01T14:29:54.743Z,24.68
2022-09-01T14:32:12.429Z,24.63
2022-09-01T14:34:29.457Z,24.55
2022-09-01T14:36:46.435Z,24.49
2022-09-01T14:39:03.747Z,24.57
2022-09-01T14:41:20.836Z,24.54
2022-09-01T14:43:38.123Z,24.63
2022-09-01T14:45:55.084Z,24.63
2022-09-01T14:48:12.278Z,24.64
2022-09-01T14:50:30.396Z,24.66
2022-09-01T14:52:47.557Z,24.85
2022-09-01T14:55:04.791Z,25.20
2022-09-01T14:57:36.870Z,25.50
2022-09-01T14:59:55.405Z,26.06
2022-09-01T15:02:12.688Z,26.36
2022-09-01T15:04:29.711Z,26.65
2022-09-01T15:06:47.775Z,26.71
2022-09-01T15:09:07.036Z,26.65
2022-09-01T15:11:24.606Z,26.46
2022-09-01T15:13:41.900Z,26.21
2022-09-01T15:15:59.095Z,25.62
2022-09-01T15:18:16.462Z,25.33
2022-09-01T15:20:33.529Z,25.16
2022-09-01T15:22:50.876Z,25.06
2022-09-01T15:25:07.857Z,24.92
2022-09-01T15:27:25.188Z,24.89
2022-09-01T15:29:42.500Z,24.79
2022-09-01T15:31:59.852Z,24.65
2022-09-01T15:34:16.880Z,24.50
2022-09-01T15:36:34.192Z,24.41
2022-09-01T15:38:51.361Z,24.42
2022-09-01T15:41:08.458Z,24.43
2022-09-01T15:43:25.579Z,24.36
2022-09-01T15:45:42.825Z,24.23
2022-09-01T15:47:59.918Z,24.23
2022-09-01T15:50:21.923Z,24.17
2022-09-01T15:52:39.267Z,24.13
2022-09-01T15:54:56.619Z,24.16
2022-09-01T15:57:13.516Z,24.15
2022-09-01T15:59:31.993Z,24.14
2022-09-01T16:01:49.699Z,24.18
2022-09-01T16:04:07.107Z,24.15
2022-09-01T16:06:24.193Z,24.11
2022-09-01T16:08:41.240Z,24.06
2022-09-01T16:10:58.597Z,24.02
2022-09-01T16:13:15.532Z,24.03
2022-09-01T16:15:32.620Z,24.09
2022-09-01T16:17:49.833Z,24.10
2022-09-01T16:20:06.894Z,24.02
2022-09-01T16:22:23.956Z,24.10
2022-09-01T16:24:41.310Z,24.10
2022-09-01T16:26:58.669Z,24.09
2022-09-01T16:29:15.953Z,24.11
2022-09-01T16:31:33.027Z,24.16
2022-09-01T16:33:50.230Z,24.16
2022-09-01T16:36:08.523Z,24.28
2022-09-01T16:38:25.900Z,24.37
2022-09-01T16:40:42.908Z,24.51
2022-09-01T16:42:59.944Z,24.58
2022-09-01T16:45:17.275Z,24.41
2022-09-01T16:47:34.294Z,24.27
2022-09-01T16:49:51.348Z,24.20
2022-09-01T16:52:08.377Z,24.12
2022-09-01T16:54:25.400Z,23.98
2022-09-01T16:56:43.402Z,23.85
2022-09-01T16:59:00.394Z,23.72
2022-09-01T17:01:17.501Z,23.62
2022-09-01T17:03:42.950Z,23.55
2022-09-01T17:06:00.287Z,23.44
2022-09-01T17:08:17.621Z,23.34
2022-09-01T17:10:34.638Z,23.25
2022-09-01T17:12:51.966Z,23.18
2022-09-01T17:15:10.048Z,23.04
2022-09-01T17:17:27.123Z,22.92
2022-09-01T17:19:44.676Z,22.85
2022-09-01T17:22:01.741Z,22.73
2022-09-01T17:24:18.780Z,22.63
2022-09-01T17:26:36.078Z,22.51
2022-09-01T17:28:53.402Z,22.38
2022-09-01T17:31:10.361Z,22.29
2022-09-01T17:33:27.453Z,22.19
2022-09-01T17:35:44.432Z,22.10
2022-09-01T17:38:01.731Z,22.02
2022-09-01T17:40:19.026Z,21.94
2022-09-01T17:42:36.087Z,21.88
2022-09-01T17:44:54.546Z,21.78
2022-09-01T17:47:11.459Z,21.69
2022-09-01T17:49:28.417Z,21.55
2022-09-01T17:51:45.716Z,21.45
2022-09-01T17:54:02.956Z,21.35
2022-09-01T17:56:20.295Z,21.26
2022-09-01T17:58:37.532Z,21.17
2022-09-01T18:00:54.443Z,21.10
2022-09-01T18:03:11.583Z,21.01
2022-09-01T18:05:28.706Z,20.93
2022-09-01T18:07:46.011Z,20.81
2022-09-01T18:10:03.063Z,20.70
2022-09-01T18:12:19.993Z,20.55
2022-09-01T18:14:37.037Z,20.41
2022-09-01T18:16:54.032Z,20.32
2022-09-01T18:19:11.007Z,20.23
2022-09-01T18:21:28.994Z,20.11
2022-09-01T18:23:47.229Z,20.00
2022-09-01T18:26:05.201Z,19.89
2022-09-01T18:28:22.114Z,19.80
2022-09-01T18:30:52.609Z,19.72
2022-09-01T18:33:10.429Z,19.61
2022-09-01T18:35:27.659Z,19.52
2022-09-01T18:37:44.990Z,19.42
2022-09-01T18:40:02.068Z,19.34
2022-09-01T18:42:19.166Z,19.27
2022-09-01T18:44:36.145Z,19.20
2022-09-01T18:46:53.223Z,19.15
2022-09-01T18:49:10.174Z,19.10
2022-09-01T18:51:27.148Z,19.02
2022-09-01T18:53:44.002Z,18.95
2022-09-01T18:56:01.076Z,18.85
2022-09-01T18:58:18.214Z,18.76
2022-09-01T19:00:35.276Z,18.70
2022-09-01T19:02:52.506Z,18.62
2022-09-01T19:05:09.562Z,18.57
2022-09-01T19:07:26.492Z,18.49
2022-09-01T19:09:43.544Z,18.44
2022-09-01T19:12:00.647Z,18.37
2022-09-01T19:14:17.912Z,18.33
2022-09-01T19:16:34.915Z,18.26
2022-09-01T19:18:51.962Z,18.20
2022-09-01T19:21:09.255Z,18.08
2022-09-01T19:23:26.215Z,18.02
2022-09-01T19:25:43.135Z,17.96
2022-09-01T19:28:00.198Z,17.91
2022-09-01T19:30:17.215Z,17.87
2022-09-01T19:32:34.257Z,17.82
2022-09-01T19:34:51.242Z,17.73
2022-09-01T19:37:08.259Z,17.67
2022-09-01T19:39:25.505Z,17.63
2022-09-01T19:41:42.588Z,17.59
2022-09-01T19:43:59.646Z,17.54
2022-09-01T19:46:16.693Z,17.55
2022-09-01T19:48:33.767Z,17.50
2022-09-01T19:50:52.035Z,17.43
2022-09-01T19:53:10.313Z,17.38
2022-09-01T19:55:31.063Z,17.33
2022-09-01T19:57:48.437Z,17.23
2022-09-01T20:00:05.372Z,17.23
2022-09-01T20:02:22.507Z,17.18
2022-09-01T20:04:39.866Z,17.12
2022-09-01T20:06:57.101Z,17.11
2022-09-01T20:09:14.132Z,17.10
2022-09-01T20:11:31.274Z,17.08
2022-09-01T20:13:48.222Z,17.06
2022-09-01T20:16:05.264Z,17.03
2022-09-01T20:18:23.584Z,16.99
2022-09-01T20:20:40.902Z,16.96
2022-09-01T20:22:57.849Z,16.91
2022-09-01T20:25:15.157Z,16.83
2022-09-01T20:27:32.121Z,16.80
2022-09-01T20:29:49.519Z,16.71
2022-09-01T20:32:06.853Z,16.67
2022-09-01T20:34:23.719Z,16.64
2022-09-01T20:36:40.786Z,16.60
2022-09-01T20:38:57.914Z,16.56
2022-09-01T20:41:14.922Z,16.55
2022-09-01T20:43:32.240Z,16.51
2022-09-01T20:45:49.349Z,16.48
2022-09-01T20:48:06.484Z,16.46
2022-09-01T20:50:23.737Z,16.41
2022-09-01T20:52:40.704Z,16.38
2022-09-01T20:54:58.679Z,16.30
2022-09-01T20:57:16.619Z,16.20
2022-09-01T20:59:33.602Z,16.18
2022-09-01T21:01:50.633Z,16.14
2022-09-01T21:04:08.011Z,16.13
2022-09-01T21:06:25.105Z,16.07
2022-09-01T21:08:42.393Z,16.00
2022-09-01T21:10:59.427Z,15.95
2022-09-01T21:13:16.399Z,15.91
2022-09-01T21:15:33.501Z,15.90
2022-09-01T21:17:50.734Z,15.86
2022-09-01T21:20:07.696Z,15.81
2022-09-01T21:22:24.720Z,15.76
2022-09-01T21:24:41.770Z,15.72
2022-09-01T21:26:58.731Z,15.69
2022-09-01T21:29:15.761Z,15.64
2022-09-01T21:31:32.853Z,15.59
2022-09-01T21:33:50.758Z,15.57
2022-09-01T21:36:07.715Z,15.52
2022-09-01T21:38:24.636Z,15.42
2022-09-01T21:40:41.954Z,15.36
2022-09-01T21:42:59.040Z,15.32
2022-09-01T21:45:16.386Z,15.30
2022-09-01T21:47:33.471Z,15.26
2022-09-01T21:49:50.392Z,15.27
2022-09-01T21:52:07.681Z,15.22
2022-09-01T21:54:24.649Z,15.19
2022-09-01T21:56:41.574Z,15.19
2022-09-01T21:58:58.505Z,15.11
2022-09-01T22:01:15.511Z,15.04
2022-09-01T22:03:32.578Z,14.99
2022-09-01T22:05:49.872Z,14.92
2022-09-01T22:08:06.905Z,14.86
2022-09-01T22:10:23.770Z,14.82
2022-09-01T22:12:41.075Z,14.79
2022-09-01T22:14:58.346Z,14.76
2022-09-01T22:17:15.487Z,14.73
2022-09-01T22:19:32.487Z,14.71
2022-09-01T22:21:49.458Z,14.68
2022-09-01T22:24:06.779Z,14.64
2022-09-01T22:26:24.118Z,14.63
2022-09-01T22:28:41.027Z,14.59
2022-09-01T22:30:58.431Z,14.54
2022-09-01T22:33:15.559Z,14.48
2022-09-01T22:35:32.849Z,14.41
2022-09-01T22:37:50.127Z,14.34
2022-09-01T22:40:07.410Z,14.31
2022-09-01T22:42:25.688Z,14.25
2022-09-01T22:44:43.548Z,14.19
2022-09-01T22:47:00.820Z,14.19
2022-09-01T22:49:17.783Z,14.18
2022-09-01T22:51:34.739Z,14.16
2022-09-01T22:53:51.699Z,14.13
2022-09-01T22:56:08.979Z,14.11
2022-09-01T22:58:25.914Z,14.07
2022-09-01T23:00:42.903Z,14.02
2022-09-01T23:02:59.957Z,14.00
2022-09-01T23:05:17.022Z,13.93
2022-09-01T23:07:34.041Z,13.87
2022-09-01T23:09:51.318Z,13.84
2022-09-01T23:12:08.627Z,13.80
2022-09-01T23:14:25.663Z,13.78
2022-09-01T23:16:42.796Z,13.76
2022-09-01T23:19:00.100Z,13.73
2022-09-01T23:21:18.066Z,13.72
2022-09-01T23:23:35.066Z,13.68
2022-09-01T23:25:53.636Z,13.64
2022-09-01T23:28:11.035Z,13.57
2022-09-01T23:30:28.101Z,13.53
2022-09-01T23:32:45.070Z,13.51
2022-09-01T23:35:02.096Z,13.47
2022-09-01T23:37:19.449Z,13.43
2022-09-01T23:39:36.731Z,13.39
2022-09-01T23:41:53.598Z,13.37
2022-09-01T23:44:10.635Z,13.34
2022-09-01T23:46:27.722Z,13.34
2022-09-01T23:48:45.996Z,13.31
2022-09-01T23:51:03.215Z,13.29
2022-09-01T23:53:20.667Z,13.23
2022-09-01T23:55:37.771Z,13.18
2022-09-01T23:57:54.799Z,13.13
